»·PEaware :: N130F KMRY-KRDD

N130F :: KMRY-KRDD

FLIGHT INFORMATION

Flight Status: Arrived
Operator: Privately registered:
United States
More flights under this callsign
Pilot: David J. (24489)
Aircraft: BEECH AIRCRAFT SUPER KING AIR 350
(B350)
More flights by this aircraft type
Origin: KMRY Monterey Peninsula
United States
Destination: KRDD Redding Mun
United States
More flights between these airports :: More routes between these airports
Route: +SHOEY V27 PYE/N0309F260 RBL
File this flight plan on PilotEdge
Remarks: RMK / SIMBRIEF
Altitude:
(Current/Filed)
16,000ft
Speed:
(Current/Filed)
305kts
Departed: 09-Nov-20 08:12 PM
Arrived: 09-Nov-20 09:20 PM
Distance/Time
Traveled:
236nm/1:08
Distance/Time
To Go:
Arrived

Flight Plot

Page will automatically refresh every two minutes.

Flight plan parsing failed; only flown route is shown


Map Options




Map Legend


Flown Route
Filed Route
Departure Airport
Arrival Airport
Navaid (VOR, NDB)
Fix

Horizontal Profiles

Position Reports

Time Latitude Longitude Heading Altitude Ground
Speed
09-Nov-20 19:33 36.588812 -121.857018 346 209ft 0kts
09-Nov-20 19:34 36.588812 -121.857018 346 209ft 0kts
09-Nov-20 19:35 36.588812 -121.857018 346 209ft 0kts
09-Nov-20 19:36 36.588812 -121.857018 346 209ft 0kts
09-Nov-20 19:37 36.588812 -121.857018 346 209ft 0kts
09-Nov-20 19:38 36.588812 -121.857018 346 209ft 0kts
09-Nov-20 19:39 36.588812 -121.857018 346 209ft 0kts
09-Nov-20 19:40 36.588812 -121.857018 346 209ft 0kts
09-Nov-20 19:41 36.588812 -121.857018 346 209ft 0kts
09-Nov-20 19:42 36.588812 -121.857018 346 209ft 0kts
09-Nov-20 19:43 36.588812 -121.857018 346 209ft 0kts
09-Nov-20 19:44 36.588812 -121.857018 346 209ft 0kts
09-Nov-20 19:45 36.588812 -121.857018 346 209ft 0kts
09-Nov-20 19:46 36.588812 -121.857018 346 209ft 0kts
09-Nov-20 19:47 36.588812 -121.857018 346 209ft 0kts
09-Nov-20 19:48 36.588812 -121.857018 346 209ft 0kts
09-Nov-20 19:49 36.588812 -121.857018 346 209ft 0kts
09-Nov-20 19:50 36.588812 -121.857018 346 209ft 0kts
09-Nov-20 19:51 36.588812 -121.857018 346 209ft 0kts
09-Nov-20 19:52 36.588812 -121.857018 346 209ft 0kts
09-Nov-20 19:53 36.588812 -121.857018 346 209ft 0kts
09-Nov-20 19:54 36.588812 -121.857018 346 209ft 0kts
09-Nov-20 19:55 36.588812 -121.857018 346 209ft 0kts
09-Nov-20 19:56 36.588812 -121.857018 346 209ft 0kts
09-Nov-20 19:57 36.588812 -121.857018 346 209ft 0kts
09-Nov-20 19:58 36.588812 -121.857018 346 209ft 0kts
09-Nov-20 19:59 36.588812 -121.857018 346 209ft 0kts
09-Nov-20 20:00 36.588812 -121.857018 346 209ft 0kts
09-Nov-20 20:01 36.588812 -121.857018 346 209ft 0kts
09-Nov-20 20:02 36.588812 -121.857018 346 209ft 0kts
09-Nov-20 20:03 36.588812 -121.857018 346 209ft 0kts
09-Nov-20 20:04 36.588812 -121.857018 346 209ft 0kts
09-Nov-20 20:05 36.588828 -121.857024 346 209ft 2kts
09-Nov-20 20:06 36.588460 -121.851115 109 209ft 27kts
09-Nov-20 20:07 36.586836 -121.846369 112 209ft 0kts
09-Nov-20 20:08 36.584376 -121.839464 112 209ft 33kts
09-Nov-20 20:09 36.582944 -121.833933 72 209ft 0kts
09-Nov-20 20:10 36.583287 -121.833480 293 209ft 2kts
09-Nov-20 20:11 36.592388 -121.861094 290 1147ft 126kts
09-Nov-20 20:12 36.617591 -121.892075 355 3226ft 155kts
09-Nov-20 20:13 36.656551 -121.912874 353 4845ft 175kts
09-Nov-20 20:14 36.707298 -121.918215 356 6033ft 187kts
09-Nov-20 20:15 36.759749 -121.924178 356 7273ft 191kts
09-Nov-20 20:16 36.810564 -121.916464 39 8439ft 194kts
09-Nov-20 20:17 36.859032 -121.890258 4 9588ft 194kts
09-Nov-20 20:18 36.913042 -121.891774 355 10698ft 194kts
09-Nov-20 20:19 36.966865 -121.897049 354 11706ft 194kts
09-Nov-20 20:20 37.022432 -121.902931 353 12502ft 217kts
09-Nov-20 20:21 37.085564 -121.909658 353 12510ft 242kts
09-Nov-20 20:22 37.153768 -121.916935 353 12506ft 248kts
09-Nov-20 20:23 37.219905 -121.935400 326 12514ft 249kts
09-Nov-20 20:24 37.274475 -121.989613 323 12509ft 251kts
09-Nov-20 20:25 37.330262 -122.042296 329 12509ft 249kts
09-Nov-20 20:26 37.393589 -122.075946 344 12510ft 248kts
09-Nov-20 20:27 37.460573 -122.097583 345 12509ft 248kts
09-Nov-20 20:28 37.527375 -122.118887 345 12510ft 248kts
09-Nov-20 20:29 37.592896 -122.139707 345 12510ft 248kts
09-Nov-20 20:30 37.659973 -122.160945 345 12505ft 248kts
09-Nov-20 20:31 37.726453 -122.182110 345 12514ft 244kts
09-Nov-20 20:32 37.794266 -122.203717 345 12516ft 255kts
09-Nov-20 20:33 37.863601 -122.225919 345 12513ft 257kts
09-Nov-20 20:35 37.933854 -122.236966 14 12517ft 263kts
09-Nov-20 20:36 38.001117 -122.197549 22 12509ft 267kts
09-Nov-20 20:37 38.067268 -122.155039 22 12510ft 267kts
09-Nov-20 20:38 38.133622 -122.112360 22 12500ft 267kts
09-Nov-20 20:39 38.202900 -122.102418 350 12505ft 258kts
09-Nov-20 20:40 38.274659 -122.111283 354 12500ft 257kts
09-Nov-20 20:41 38.345762 -122.117204 354 12503ft 255kts
09-Nov-20 20:42 38.416573 -122.122853 354 12509ft 255kts
09-Nov-20 20:43 38.487379 -122.128472 354 12510ft 254kts
09-Nov-20 20:44 38.557874 -122.134048 354 12512ft 253kts
09-Nov-20 20:45 38.628131 -122.139628 354 12510ft 253kts
09-Nov-20 20:46 38.698631 -122.145247 354 12509ft 252kts
09-Nov-20 20:47 38.768811 -122.150852 354 12512ft 252kts
09-Nov-20 20:48 38.838803 -122.156450 354 12511ft 252kts
09-Nov-20 20:49 38.908902 -122.162064 354 12505ft 251kts
09-Nov-20 20:50 38.978711 -122.167668 354 12503ft 250kts
09-Nov-20 20:51 39.048182 -122.173249 354 12503ft 250kts
09-Nov-20 20:52 39.118098 -122.178861 354 12501ft 252kts
09-Nov-20 20:53 39.188175 -122.184563 354 12499ft 252kts
09-Nov-20 20:53 39.246569 -122.189280 354 12501ft 252kts
09-Nov-20 20:54 39.316538 -122.194938 354 12506ft 251kts
09-Nov-20 20:55 39.386353 -122.200632 354 12507ft 251kts
09-Nov-20 20:56 39.455995 -122.206304 354 12509ft 251kts
09-Nov-20 20:58 39.537224 -122.212913 354 12508ft 250kts
09-Nov-20 20:58 39.594974 -122.217614 354 12529ft 250kts
09-Nov-20 20:59 39.664378 -122.223311 354 12530ft 250kts
09-Nov-20 21:00 39.733839 -122.229016 354 12530ft 250kts
09-Nov-20 21:01 39.803257 -122.234695 354 12530ft 249kts
09-Nov-20 21:02 39.872505 -122.240365 354 12527ft 249kts
09-Nov-20 21:03 39.941673 -122.246116 354 12531ft 249kts
09-Nov-20 21:04 40.010888 -122.251870 354 12530ft 249kts
09-Nov-20 21:05 40.080037 -122.257588 354 12530ft 249kts
09-Nov-20 21:06 40.149291 -122.263329 354 12369ft 248kts
09-Nov-20 21:07 40.215389 -122.268833 354 11110ft 229kts
09-Nov-20 21:08 40.277471 -122.274035 355 9910ft 222kts
09-Nov-20 21:09 40.339303 -122.279183 355 8726ft 222kts
09-Nov-20 21:10 40.400972 -122.282425 7 7546ft 222kts
09-Nov-20 21:11 40.459752 -122.256243 19 6439ft 222kts
09-Nov-20 21:12 40.517178 -122.227181 19 5363ft 220kts
09-Nov-20 21:13 40.572846 -122.213719 4 4438ft 167kts
09-Nov-20 21:14 40.606917 -122.215351 295 3031ft 122kts
09-Nov-20 21:15 40.597334 -122.257035 232 1776ft 119kts
09-Nov-20 21:16 40.568790 -122.281730 209 1377ft 115kts
09-Nov-20 21:17 40.537716 -122.293835 187 809ft 119kts
09-Nov-20 21:18 40.508590 -122.294972 179 506ft 78kts
09-Nov-20 21:19 40.502047 -122.296422 309 506ft 0kts
09-Nov-20 21:20 40.502510 -122.297072 315 506ft 12kts
09-Nov-20 21:21 40.504921 -122.298416 354 506ft 20kts
09-Nov-20 21:22 40.508122 -122.298728 1 506ft 6kts
09-Nov-20 21:23 40.508404 -122.299235 270 506ft 0kts
09-Nov-20 21:24 40.508404 -122.299235 270 506ft 0kts
09-Nov-20 21:25 40.508404 -122.299235 270 506ft 0kts
09-Nov-20 21:26 40.508404 -122.299235 270 506ft 0kts
09-Nov-20 21:27 40.508404 -122.299235 270 506ft 0kts
09-Nov-20 21:28 40.508404 -122.299235 270 506ft 0kts
09-Nov-20 21:29 40.508404 -122.299235 270 506ft 0kts
09-Nov-20 21:30 40.508404 -122.299235 270 506ft 0kts
09-Nov-20 21:31 40.508404 -122.299235 270 506ft 0kts
09-Nov-20 21:32 40.508404 -122.299235 270 506ft 0kts
09-Nov-20 21:33 40.508404 -122.299235 270 506ft 0kts

Navigation Log

Ident Type
Flight plan parsing failed, navigation log unavailable